createdAt,value
2023-04-06T00:00:05.195Z,0.00
2023-04-06T00:01:05.235Z,0.00
2023-04-06T00:02:05.292Z,0.00
2023-04-06T00:03:05.305Z,0.00
2023-04-06T00:04:05.296Z,0.00
2023-04-06T00:05:05.305Z,0.00
2023-04-06T00:06:05.324Z,0.00
2023-04-06T00:07:05.353Z,0.00
2023-04-06T00:08:05.364Z,0.00
2023-04-06T00:09:05.438Z,0.00
2023-04-06T00:10:05.428Z,0.00
2023-04-06T00:11:05.440Z,0.00
2023-04-06T00:12:05.452Z,0.00
2023-04-06T00:13:05.476Z,0.00
2023-04-06T00:14:05.495Z,0.00
2023-04-06T00:15:05.525Z,0.00
2023-04-06T00:16:05.577Z,0.00
2023-04-06T00:17:05.731Z,0.00
2023-04-06T00:18:05.633Z,0.00
2023-04-06T00:19:05.657Z,0.00
2023-04-06T00:20:05.670Z,0.00
2023-04-06T00:21:05.674Z,0.00
2023-04-06T00:22:05.731Z,0.00
2023-04-06T00:23:05.733Z,0.00
2023-04-06T00:24:05.741Z,0.00
2023-04-06T00:25:05.737Z,0.00
2023-04-06T00:26:05.754Z,0.00
2023-04-06T00:27:05.832Z,0.00
2023-04-06T00:28:05.809Z,0.00
2023-04-06T00:29:05.906Z,0.00
2023-04-06T00:30:05.847Z,0.00
2023-04-06T00:31:05.885Z,0.00
2023-04-06T00:32:05.918Z,0.00
2023-04-06T00:33:05.944Z,0.00
2023-04-06T00:34:05.931Z,0.00
2023-04-06T00:35:05.953Z,0.00
2023-04-06T00:36:06.028Z,0.00
2023-04-06T00:37:06.003Z,0.00
2023-04-06T00:38:06.022Z,0.00
2023-04-06T00:39:06.175Z,0.00
2023-04-06T00:40:06.064Z,0.00
2023-04-06T00:41:06.091Z,0.00
2023-04-06T00:42:06.106Z,0.00
2023-04-06T00:43:06.130Z,0.00
2023-04-06T00:44:06.162Z,0.00
2023-04-06T00:45:06.173Z,0.00
2023-04-06T00:46:06.241Z,0.00
2023-04-06T00:47:06.218Z,0.00
2023-04-06T00:48:06.295Z,0.00
2023-04-06T00:49:06.557Z,0.00
2023-04-06T00:50:06.293Z,0.00
2023-04-06T00:51:06.306Z,0.00
2023-04-06T00:52:06.324Z,0.00
2023-04-06T00:53:06.350Z,0.00
2023-04-06T00:54:06.387Z,0.00
2023-04-06T00:55:06.398Z,0.00
2023-04-06T00:56:06.427Z,0.00
2023-04-06T00:57:06.434Z,0.00
2023-04-06T00:58:06.454Z,0.00
2023-04-06T00:59:06.682Z,0.00
2023-04-06T01:00:06.522Z,0.00
2023-04-06T01:01:06.559Z,0.00
2023-04-06T01:02:06.548Z,0.00
2023-04-06T01:03:06.565Z,0.00
2023-04-06T01:04:06.594Z,0.00
2023-04-06T01:05:06.733Z,0.00
2023-04-06T01:06:06.631Z,0.00
2023-04-06T01:07:06.653Z,0.00
2023-04-06T01:08:06.689Z,0.00
2023-04-06T01:09:06.952Z,0.00
2023-04-06T01:10:06.717Z,0.00
2023-04-06T01:11:06.737Z,0.00
2023-04-06T01:12:06.758Z,0.00
2023-04-06T01:13:06.782Z,0.00
2023-04-06T01:14:06.803Z,0.00
2023-04-06T01:15:06.832Z,0.00
2023-04-06T01:16:06.891Z,0.00
2023-04-06T01:17:06.869Z,0.00
2023-04-06T01:18:06.938Z,0.00
2023-04-06T01:19:10.005Z,0.00
2023-04-06T01:20:06.943Z,0.00
2023-04-06T01:21:06.990Z,0.00
2023-04-06T01:22:06.969Z,0.00
2023-04-06T01:23:06.996Z,0.00
2023-04-06T01:24:07.023Z,0.00
2023-04-06T01:25:07.036Z,0.00
2023-04-06T01:26:07.077Z,0.00
2023-04-06T01:27:07.083Z,0.00
2023-04-06T01:28:07.103Z,0.00
2023-04-06T01:29:07.413Z,0.00
2023-04-06T01:30:07.148Z,0.00
2023-04-06T01:31:07.267Z,0.00
2023-04-06T01:32:07.210Z,0.00
2023-04-06T01:33:07.232Z,0.00
2023-04-06T01:34:07.246Z,0.00
2023-04-06T01:35:07.265Z,0.00
2023-04-06T01:36:07.279Z,0.00
2023-04-06T01:37:07.319Z,0.00
2023-04-06T01:38:07.326Z,0.00
2023-04-06T01:39:07.556Z,0.00
2023-04-06T01:40:07.374Z,0.00
2023-04-06T01:41:07.381Z,0.00
2023-04-06T01:42:07.402Z,0.00
2023-04-06T01:43:07.422Z,0.00
2023-04-06T01:44:07.445Z,0.00
2023-04-06T01:45:07.472Z,0.00
2023-04-06T01:46:07.552Z,0.00
2023-04-06T01:47:07.510Z,0.00
2023-04-06T01:48:07.537Z,0.00
2023-04-06T01:49:07.818Z,0.00
2023-04-06T01:50:07.572Z,0.00
2023-04-06T01:51:07.598Z,0.00
2023-04-06T01:52:07.618Z,0.00
2023-04-06T01:53:07.658Z,0.00
2023-04-06T01:54:07.659Z,0.00
2023-04-06T01:55:07.683Z,0.00
2023-04-06T01:56:07.710Z,0.00
2023-04-06T01:57:07.723Z,0.00
2023-04-06T01:58:10.366Z,0.00
2023-04-06T01:59:07.998Z,0.00
2023-04-06T02:00:07.806Z,0.00
2023-04-06T02:01:07.848Z,0.00
2023-04-06T02:02:08.119Z,0.00
2023-04-06T02:03:07.908Z,0.00
2023-04-06T02:04:07.874Z,0.00
2023-04-06T02:05:07.895Z,0.00
2023-04-06T02:06:07.928Z,0.00
2023-04-06T02:07:07.935Z,0.00
2023-04-06T02:08:07.959Z,0.00
2023-04-06T02:09:08.216Z,0.00
2023-04-06T02:10:08.003Z,0.00
2023-04-06T02:11:08.019Z,0.00
2023-04-06T02:12:08.045Z,0.00
2023-04-06T02:13:08.065Z,0.00
2023-04-06T02:14:08.098Z,0.00
2023-04-06T02:15:08.105Z,0.00
2023-04-06T02:16:08.184Z,0.00
2023-04-06T02:17:08.162Z,0.00
2023-04-06T02:18:08.226Z,0.00
2023-04-06T02:19:08.551Z,0.00
2023-04-06T02:20:08.222Z,0.00
2023-04-06T02:21:08.241Z,0.00
2023-04-06T02:22:08.264Z,0.00
2023-04-06T02:23:08.287Z,0.00
2023-04-06T02:24:08.300Z,0.00
2023-04-06T02:25:08.340Z,0.00
2023-04-06T02:26:08.344Z,0.00
2023-04-06T02:27:08.365Z,0.00
2023-04-06T02:28:08.389Z,0.00
2023-04-06T02:29:08.725Z,0.00
2023-04-06T02:30:08.425Z,0.00
2023-04-06T02:31:08.454Z,0.00
2023-04-06T02:32:08.514Z,0.00
2023-04-06T02:33:08.497Z,0.00
2023-04-06T02:34:08.511Z,0.00
2023-04-06T02:35:08.534Z,0.00
2023-04-06T02:36:08.559Z,0.00
2023-04-06T02:37:08.573Z,0.00
2023-04-06T02:38:08.612Z,0.00
2023-04-06T02:39:08.837Z,0.00
2023-04-06T02:40:08.639Z,0.00
2023-04-06T02:41:08.685Z,0.00
2023-04-06T02:42:08.682Z,0.00
2023-04-06T02:43:08.702Z,0.00
2023-04-06T02:44:08.732Z,0.00
2023-04-06T02:45:08.745Z,0.00
2023-04-06T02:46:08.803Z,0.00
2023-04-06T02:47:08.789Z,0.00
2023-04-06T02:48:08.809Z,0.00
2023-04-06T02:49:09.097Z,0.00
2023-04-06T02:50:08.851Z,0.00
2023-04-06T02:51:08.870Z,0.00
2023-04-06T02:52:08.894Z,0.00
2023-04-06T02:53:08.913Z,0.00
2023-04-06T02:54:08.935Z,0.00
2023-04-06T02:55:08.955Z,0.00
2023-04-06T02:56:08.994Z,0.00
2023-04-06T02:57:09.120Z,0.00
2023-04-06T02:58:09.020Z,0.00
2023-04-06T02:59:09.696Z,0.00
2023-04-06T03:00:09.226Z,0.00
2023-04-06T03:01:09.201Z,0.00
2023-04-06T03:02:09.184Z,0.00
2023-04-06T03:03:09.214Z,0.00
2023-04-06T03:04:09.254Z,0.00
2023-04-06T03:05:09.271Z,0.00
2023-04-06T03:06:09.276Z,0.00
2023-04-06T03:07:09.283Z,0.00
2023-04-06T03:08:09.274Z,0.00
2023-04-06T03:09:09.511Z,0.00
2023-04-06T03:10:09.279Z,0.00
2023-04-06T03:11:09.298Z,0.00
2023-04-06T03:12:10.089Z,0.00
2023-04-06T03:13:09.362Z,0.00
2023-04-06T03:14:09.363Z,0.00
2023-04-06T03:15:09.422Z,0.00
2023-04-06T03:16:09.434Z,0.00
2023-04-06T03:17:09.419Z,0.00
2023-04-06T03:18:09.507Z,0.00
2023-04-06T03:19:09.808Z,0.00
2023-04-06T03:20:09.483Z,0.00
2023-04-06T03:21:09.519Z,0.00
2023-04-06T03:22:09.522Z,0.00
2023-04-06T03:23:09.545Z,0.00
2023-04-06T03:24:09.568Z,0.00
2023-04-06T03:25:09.591Z,0.00
2023-04-06T03:26:09.608Z,0.00
2023-04-06T03:27:09.628Z,0.00
2023-04-06T03:28:09.653Z,0.00
2023-04-06T03:29:09.931Z,0.00
2023-04-06T03:30:09.691Z,0.00
2023-04-06T03:31:09.735Z,0.00
2023-04-06T03:32:11.082Z,0.00
2023-04-06T03:33:09.775Z,0.00
2023-04-06T03:34:09.772Z,0.00
2023-04-06T03:35:09.794Z,0.00
2023-04-06T03:36:09.817Z,0.00
2023-04-06T03:37:10.920Z,0.00
2023-04-06T03:38:09.883Z,0.00
2023-04-06T03:39:10.079Z,0.00
2023-04-06T03:40:09.904Z,0.00
2023-04-06T03:41:09.920Z,0.00
2023-04-06T03:42:09.945Z,0.00
2023-04-06T03:43:09.968Z,0.00
2023-04-06T03:44:09.986Z,0.00
2023-04-06T03:45:10.027Z,0.00
2023-04-06T03:46:10.062Z,0.00
2023-04-06T03:47:10.051Z,0.00
2023-04-06T03:48:10.138Z,0.00
2023-04-06T03:49:10.253Z,0.00
2023-04-06T03:50:10.113Z,0.00
2023-04-06T03:51:10.132Z,0.00
2023-04-06T03:52:10.154Z,0.00
2023-04-06T03:53:10.181Z,0.00
2023-04-06T03:54:10.207Z,0.00
2023-04-06T03:55:10.219Z,0.00
2023-04-06T03:56:10.242Z,0.00
2023-04-06T03:57:10.270Z,0.00
2023-04-06T03:58:10.281Z,0.00
2023-04-06T03:59:10.718Z,0.00
2023-04-06T04:00:10.322Z,0.00
2023-04-06T04:01:10.362Z,0.00
2023-04-06T04:02:10.408Z,0.00
2023-04-06T04:03:10.488Z,0.00
2023-04-06T04:04:10.409Z,0.00
2023-04-06T04:05:10.465Z,0.00
2023-04-06T04:06:10.450Z,0.00
2023-04-06T04:07:10.466Z,0.00
2023-04-06T04:08:10.498Z,0.00
2023-04-06T04:09:10.617Z,0.00
2023-04-06T04:10:10.533Z,0.00
2023-04-06T04:11:10.552Z,0.00
2023-04-06T04:12:10.576Z,0.00
2023-04-06T04:13:10.592Z,0.00
2023-04-06T04:14:10.616Z,0.00
2023-04-06T04:15:10.635Z,0.00
2023-04-06T04:16:10.693Z,0.00
2023-04-06T04:17:10.697Z,0.00
2023-04-06T04:18:10.724Z,0.00
2023-04-06T04:19:10.915Z,0.00
2023-04-06T04:20:10.743Z,0.00
2023-04-06T04:21:10.762Z,0.00
2023-04-06T04:22:10.784Z,0.00
2023-04-06T04:23:10.806Z,0.00
2023-04-06T04:24:10.828Z,0.00
2023-04-06T04:25:10.851Z,0.00
2023-04-06T04:26:10.869Z,0.00
2023-04-06T04:27:10.889Z,0.00
2023-04-06T04:28:10.914Z,0.00
2023-04-06T04:29:11.010Z,0.00
2023-04-06T04:30:10.960Z,0.00
2023-04-06T04:31:10.985Z,0.00
2023-04-06T04:32:11.158Z,0.00
2023-04-06T04:33:11.040Z,0.00
2023-04-06T04:34:11.048Z,0.00
2023-04-06T04:35:11.068Z,0.00
2023-04-06T04:36:11.107Z,0.00
2023-04-06T04:37:11.117Z,0.00
2023-04-06T04:38:11.131Z,0.00
2023-04-06T04:39:11.158Z,0.00
2023-04-06T04:40:11.173Z,0.00
2023-04-06T04:41:11.197Z,0.00
2023-04-06T04:42:11.216Z,0.00
2023-04-06T04:43:11.254Z,0.00
2023-04-06T04:44:11.261Z,0.00
2023-04-06T04:45:11.291Z,0.00
2023-04-06T04:46:11.341Z,0.00
2023-04-06T04:47:11.326Z,0.00
2023-04-06T04:48:11.398Z,0.00
2023-04-06T04:49:11.386Z,5.63
2023-04-06T04:50:11.393Z,5.63
2023-04-06T04:51:11.409Z,5.63
2023-04-06T04:52:11.435Z,5.63
2023-04-06T04:53:11.463Z,5.63
2023-04-06T04:54:11.489Z,5.63
2023-04-06T04:55:11.494Z,5.63
2023-04-06T04:56:11.517Z,5.63
2023-04-06T04:57:11.538Z,5.63
2023-04-06T04:58:11.559Z,11.25
2023-04-06T04:59:11.803Z,11.25
2023-04-06T05:00:11.604Z,11.25
2023-04-06T05:01:11.717Z,11.25
2023-04-06T05:02:11.707Z,11.25
2023-04-06T05:03:11.785Z,16.88
2023-04-06T05:04:11.687Z,16.88
2023-04-06T05:05:11.732Z,16.88
2023-04-06T05:06:13.384Z,16.88
2023-04-06T05:07:11.753Z,22.50
2023-04-06T05:08:11.779Z,22.50
2023-04-06T05:09:11.797Z,22.50
2023-04-06T05:10:11.821Z,22.50
2023-04-06T05:11:11.854Z,28.13
2023-04-06T05:12:11.865Z,28.13
2023-04-06T05:13:11.891Z,28.13
2023-04-06T05:14:11.929Z,28.13
2023-04-06T05:15:11.929Z,33.75
2023-04-06T05:16:11.977Z,33.75
2023-04-06T05:17:12.007Z,33.75
2023-04-06T05:18:12.041Z,39.38
2023-04-06T05:19:12.009Z,39.38
2023-04-06T05:20:12.033Z,39.38
2023-04-06T05:21:12.091Z,39.38
2023-04-06T05:22:12.077Z,45.00
2023-04-06T05:23:12.095Z,45.00
2023-04-06T05:24:12.118Z,45.00
2023-04-06T05:25:12.145Z,50.63
2023-04-06T05:26:12.166Z,50.63
2023-04-06T05:27:12.182Z,50.63
2023-04-06T05:28:12.205Z,56.25
2023-04-06T05:29:12.225Z,56.25
2023-04-06T05:30:12.246Z,56.25
2023-04-06T05:31:12.317Z,61.88
2023-04-06T05:32:12.309Z,61.88
2023-04-06T05:33:12.386Z,61.88
2023-04-06T05:34:12.332Z,67.50
2023-04-06T05:35:12.353Z,67.50
2023-04-06T05:36:14.392Z,73.13
2023-04-06T05:37:12.416Z,73.13
2023-04-06T05:38:12.415Z,73.13
2023-04-06T05:39:12.433Z,73.13
2023-04-06T05:40:12.467Z,73.13
2023-04-06T05:41:12.482Z,78.75
2023-04-06T05:42:12.505Z,90.00
2023-04-06T05:43:12.545Z,101.25
2023-04-06T05:44:12.539Z,112.50
2023-04-06T05:45:12.560Z,129.38
2023-04-06T05:46:12.613Z,151.88
2023-04-06T05:47:12.602Z,157.50
2023-04-06T05:48:12.681Z,146.25
2023-04-06T05:49:12.832Z,174.38
2023-04-06T05:50:12.677Z,213.75
2023-04-06T05:51:12.691Z,247.50
2023-04-06T05:52:12.714Z,219.38
2023-04-06T05:53:12.758Z,236.25
2023-04-06T05:54:12.760Z,298.13
2023-04-06T05:55:12.776Z,326.25
2023-04-06T05:56:12.797Z,393.75
2023-04-06T05:57:12.833Z,376.88
2023-04-06T05:58:12.843Z,466.88
2023-04-06T05:59:12.895Z,624.38
2023-04-06T06:00:13.046Z,641.25
2023-04-06T06:01:12.913Z,624.38
2023-04-06T06:02:12.971Z,641.25
2023-04-06T06:03:13.004Z,528.75
2023-04-06T06:04:12.981Z,382.50
2023-04-06T06:05:13.017Z,354.38
2023-04-06T06:06:13.028Z,270.00
2023-04-06T06:07:13.053Z,191.25
2023-04-06T06:08:13.076Z,202.50
2023-04-06T06:09:13.135Z,196.88
2023-04-06T06:10:13.156Z,151.88
2023-04-06T06:11:13.152Z,140.63
2023-04-06T06:12:14.673Z,157.50
2023-04-06T06:13:13.196Z,253.13
2023-04-06T06:14:13.221Z,253.13
2023-04-06T06:15:13.248Z,174.38
2023-04-06T06:16:13.372Z,202.50
2023-04-06T06:17:13.293Z,230.63
2023-04-06T06:18:13.455Z,236.25
2023-04-06T06:19:13.345Z,247.50
2023-04-06T06:20:13.378Z,275.63
2023-04-06T06:21:13.389Z,320.63
2023-04-06T06:22:13.416Z,388.13
2023-04-06T06:23:13.450Z,461.25
2023-04-06T06:24:13.463Z,326.25
2023-04-06T06:25:13.512Z,180.00
2023-04-06T06:26:13.508Z,191.25
2023-04-06T06:27:13.534Z,213.75
2023-04-06T06:28:13.558Z,315.00
2023-04-06T06:29:13.640Z,376.88
2023-04-06T06:30:13.610Z,219.38
2023-04-06T06:31:13.663Z,163.13
2023-04-06T06:32:13.658Z,168.75
2023-04-06T06:33:13.689Z,163.13
2023-04-06T06:34:14.138Z,163.13
2023-04-06T06:35:13.732Z,168.75
2023-04-06T06:36:13.757Z,168.75
2023-04-06T06:37:13.782Z,168.75
2023-04-06T06:38:13.803Z,174.38
2023-04-06T06:39:13.836Z,174.38
2023-04-06T06:40:13.887Z,174.38
2023-04-06T06:41:13.897Z,180.00
2023-04-06T06:42:14.805Z,185.63
2023-04-06T06:43:13.929Z,180.00
2023-04-06T06:44:13.966Z,174.38
2023-04-06T06:45:13.993Z,180.00
2023-04-06T06:46:14.010Z,180.00
2023-04-06T06:47:14.035Z,185.63
2023-04-06T06:48:14.349Z,185.63
2023-04-06T06:49:14.103Z,185.63
2023-04-06T06:50:14.108Z,185.63
2023-04-06T06:51:14.117Z,191.25
2023-04-06T06:52:14.139Z,191.25
2023-04-06T06:53:14.184Z,191.25
2023-04-06T06:54:14.199Z,191.25
2023-04-06T06:55:14.219Z,191.25
2023-04-06T06:56:14.236Z,196.88
2023-04-06T06:57:14.281Z,196.88
2023-04-06T06:58:14.292Z,196.88
2023-04-06T06:59:14.371Z,196.88
2023-04-06T07:00:14.351Z,191.25
2023-04-06T07:01:14.372Z,185.63
2023-04-06T07:02:14.379Z,185.63
2023-04-06T07:03:14.404Z,196.88
2023-04-06T07:04:14.467Z,196.88
2023-04-06T07:05:26.643Z,196.88
2023-04-06T07:06:14.488Z,196.88
2023-04-06T07:07:14.529Z,191.25
2023-04-06T07:08:14.536Z,191.25
2023-04-06T07:09:14.583Z,196.88
2023-04-06T07:10:14.577Z,191.25
2023-04-06T07:11:14.630Z,185.63
2023-04-06T07:12:14.658Z,196.88
2023-04-06T07:13:14.700Z,191.25
2023-04-06T07:14:14.675Z,202.50
2023-04-06T07:15:14.740Z,202.50
2023-04-06T07:16:14.756Z,208.13
2023-04-06T07:17:14.862Z,208.13
2023-04-06T07:18:14.776Z,213.75
2023-04-06T07:19:14.822Z,213.75
2023-04-06T07:20:14.892Z,213.75
2023-04-06T07:21:14.854Z,213.75
2023-04-06T07:22:14.877Z,208.13
2023-04-06T07:23:14.904Z,202.50
2023-04-06T07:24:14.926Z,208.13
2023-04-06T07:25:15.033Z,213.75
2023-04-06T07:26:14.978Z,219.38
2023-04-06T07:27:15.009Z,219.38
2023-04-06T07:28:15.048Z,225.00
2023-04-06T07:29:15.079Z,225.00
2023-04-06T07:30:15.102Z,225.00
2023-04-06T07:31:15.109Z,225.00
2023-04-06T07:32:15.237Z,225.00
2023-04-06T07:33:15.163Z,225.00
2023-04-06T07:34:15.185Z,225.00
2023-04-06T07:35:15.212Z,230.63
2023-04-06T07:36:15.238Z,236.25
2023-04-06T07:37:15.263Z,241.88
2023-04-06T07:38:15.340Z,247.50
2023-04-06T07:39:57.873Z,258.75
2023-04-06T07:40:57.895Z,264.38
2023-04-06T07:41:57.923Z,270.00
2023-04-06T07:42:58.228Z,275.63
2023-04-06T07:43:57.976Z,286.88
2023-04-06T07:44:58.023Z,286.88
2023-04-06T07:45:58.063Z,298.13
2023-04-06T07:46:58.055Z,303.75
2023-04-06T07:47:58.145Z,315.00
2023-04-06T07:48:58.109Z,326.25
2023-04-06T07:49:58.148Z,326.25
2023-04-06T07:50:58.163Z,331.88
2023-04-06T07:51:58.215Z,343.13
2023-04-06T07:52:58.218Z,348.75
2023-04-06T07:53:58.247Z,360.00
2023-04-06T07:54:58.280Z,365.63
2023-04-06T07:55:58.304Z,382.50
2023-04-06T07:56:58.368Z,376.88
2023-04-06T07:57:58.356Z,388.13
2023-04-06T07:58:58.413Z,393.75
2023-04-06T07:59:58.437Z,393.75
2023-04-06T08:00:58.463Z,399.38
2023-04-06T08:01:58.480Z,393.75
2023-04-06T08:02:58.776Z,393.75
2023-04-06T08:03:58.586Z,393.75
2023-04-06T08:04:58.642Z,393.75
2023-04-06T08:05:58.581Z,382.50
2023-04-06T08:06:58.607Z,388.13
2023-04-06T08:07:58.639Z,382.50
2023-04-06T08:08:58.669Z,376.88
2023-04-06T08:09:58.694Z,365.63
2023-04-06T08:11:00.745Z,354.38
2023-04-06T08:11:58.790Z,343.13
2023-04-06T08:12:58.776Z,331.88
2023-04-06T08:13:58.814Z,326.25
2023-04-06T08:14:58.830Z,331.88
2023-04-06T08:15:58.915Z,331.88
2023-04-06T08:16:58.919Z,326.25
2023-04-06T08:17:58.960Z,315.00
2023-04-06T08:18:58.945Z,309.38
2023-04-06T08:19:58.980Z,298.13
2023-04-06T08:20:59.003Z,309.38
2023-04-06T08:21:59.080Z,309.38
2023-04-06T08:22:59.057Z,309.38
2023-04-06T08:23:59.086Z,303.75
2023-04-06T08:24:59.118Z,309.38
2023-04-06T08:25:59.146Z,309.38
2023-04-06T08:26:59.170Z,309.38
2023-04-06T08:27:59.201Z,309.38
2023-04-06T08:28:59.242Z,309.38
2023-04-06T08:29:59.258Z,315.00
2023-04-06T08:30:59.346Z,315.00
2023-04-06T08:31:59.427Z,315.00
2023-04-06T08:32:59.389Z,309.38
2023-04-06T08:33:59.371Z,315.00
2023-04-06T08:34:59.404Z,320.63
2023-04-06T08:35:59.457Z,326.25
2023-04-06T08:36:59.467Z,331.88
2023-04-06T08:37:59.492Z,326.25
2023-04-06T08:38:59.514Z,326.25
2023-04-06T08:39:59.550Z,326.25
2023-04-06T08:40:59.579Z,320.63
2023-04-06T08:41:59.604Z,320.63
2023-04-06T08:42:59.630Z,320.63
2023-04-06T08:43:59.673Z,320.63
2023-04-06T08:44:59.689Z,315.00
2023-04-06T08:45:59.753Z,315.00
2023-04-06T08:46:59.749Z,320.63
2023-04-06T08:47:59.862Z,320.63
2023-04-06T08:48:59.830Z,320.63
2023-04-06T08:49:59.837Z,326.25
2023-04-06T08:50:59.865Z,320.63
2023-04-06T08:51:59.896Z,315.00
2023-04-06T08:52:59.925Z,315.00
2023-04-06T08:53:59.954Z,315.00
2023-04-06T08:55:00.001Z,315.00
2023-04-06T08:56:00.020Z,315.00
2023-04-06T08:57:00.059Z,315.00
2023-04-06T08:58:00.128Z,320.63
2023-04-06T08:59:00.154Z,320.63
2023-04-06T09:00:00.206Z,320.63
2023-04-06T09:01:00.218Z,326.25
2023-04-06T09:02:00.253Z,337.50
2023-04-06T09:03:00.530Z,326.25
2023-04-06T09:04:00.354Z,337.50
2023-04-06T09:05:00.419Z,331.88
2023-04-06T09:06:00.308Z,348.75
2023-04-06T09:07:00.339Z,343.13
2023-04-06T09:08:00.368Z,326.25
2023-04-06T09:09:00.400Z,331.88
2023-04-06T09:10:00.452Z,337.50
2023-04-06T09:11:00.456Z,337.50
2023-04-06T09:12:00.507Z,348.75
2023-04-06T09:13:00.517Z,343.13
2023-04-06T09:14:00.547Z,337.50
2023-04-06T09:15:00.608Z,331.88
2023-04-06T09:16:00.629Z,315.00
2023-04-06T09:17:00.653Z,337.50
2023-04-06T09:18:00.723Z,348.75
2023-04-06T09:19:00.702Z,393.75
2023-04-06T09:20:00.760Z,421.88
2023-04-06T09:21:00.778Z,444.38
2023-04-06T09:22:00.796Z,450.00
2023-04-06T09:23:00.833Z,455.63
2023-04-06T09:24:00.939Z,455.63
2023-04-06T09:25:00.885Z,455.63
2023-04-06T09:26:00.917Z,421.88
2023-04-06T09:27:00.944Z,382.50
2023-04-06T09:28:00.977Z,410.63
2023-04-06T09:29:01.009Z,444.38
2023-04-06T09:30:01.047Z,438.75
2023-04-06T09:31:01.099Z,427.50
2023-04-06T09:32:01.165Z,438.75
2023-04-06T09:33:01.315Z,444.38
2023-04-06T09:34:01.163Z,450.00
2023-04-06T09:35:01.190Z,450.00
2023-04-06T09:36:01.260Z,450.00
2023-04-06T09:37:01.286Z,410.63
2023-04-06T09:38:01.288Z,399.38
2023-04-06T09:39:01.317Z,388.13
2023-04-06T09:40:01.379Z,393.75
2023-04-06T09:41:01.851Z,376.88
2023-04-06T09:42:01.414Z,376.88
2023-04-06T09:43:01.445Z,376.88
2023-04-06T09:44:01.478Z,388.13
2023-04-06T09:45:01.504Z,388.13
2023-04-06T09:46:01.549Z,382.50
2023-04-06T09:47:01.720Z,393.75
2023-04-06T09:48:01.807Z,382.50
2023-04-06T09:49:01.631Z,382.50
2023-04-06T09:50:01.677Z,376.88
2023-04-06T09:51:01.692Z,371.25
2023-04-06T09:52:01.774Z,371.25
2023-04-06T09:53:01.780Z,360.00
2023-04-06T09:54:01.788Z,365.63
2023-04-06T09:55:01.814Z,360.00
2023-04-06T09:56:01.863Z,371.25
2023-04-06T09:57:01.953Z,399.38
2023-04-06T09:58:01.932Z,405.00
2023-04-06T09:59:01.985Z,399.38
2023-04-06T10:00:01.996Z,405.00
2023-04-06T10:01:02.016Z,376.88
2023-04-06T10:02:02.040Z,354.38
2023-04-06T10:03:02.166Z,343.13
2023-04-06T10:04:02.179Z,360.00
2023-04-06T10:05:02.155Z,360.00
2023-04-06T10:06:02.155Z,354.38
2023-04-06T10:07:02.240Z,371.25
2023-04-06T10:08:02.221Z,388.13
2023-04-06T10:09:02.279Z,371.25
2023-04-06T10:10:02.318Z,360.00
2023-04-06T10:11:02.309Z,365.63
2023-04-06T10:12:02.340Z,354.38
2023-04-06T10:13:02.374Z,365.63
2023-04-06T10:14:02.402Z,365.63
2023-04-06T10:15:02.432Z,360.00
2023-04-06T10:16:02.520Z,348.75
2023-04-06T10:17:02.495Z,360.00
2023-04-06T10:18:02.624Z,354.38
2023-04-06T10:19:02.556Z,360.00
2023-04-06T10:20:02.592Z,360.00
2023-04-06T10:21:02.632Z,343.13
2023-04-06T10:22:02.661Z,337.50
2023-04-06T10:23:02.681Z,337.50
2023-04-06T10:24:02.713Z,326.25
2023-04-06T10:25:02.864Z,320.63
2023-04-06T10:26:02.800Z,309.38
2023-04-06T10:27:02.814Z,309.38
2023-04-06T10:28:02.841Z,303.75
2023-04-06T10:29:02.871Z,309.38
2023-04-06T10:30:02.907Z,320.63
2023-04-06T10:31:02.936Z,315.00
2023-04-06T10:32:03.008Z,315.00
2023-04-06T10:33:03.057Z,309.38
2023-04-06T10:34:05.767Z,298.13
2023-04-06T10:35:03.069Z,292.50
2023-04-06T10:36:03.141Z,298.13
2023-04-06T10:37:03.126Z,298.13
2023-04-06T10:38:03.167Z,309.38
2023-04-06T10:39:03.188Z,315.00
2023-04-06T10:40:03.225Z,315.00
2023-04-06T10:41:03.276Z,320.63
2023-04-06T10:42:03.284Z,326.25
2023-04-06T10:43:03.325Z,326.25
2023-04-06T10:44:03.371Z,315.00
2023-04-06T10:45:03.380Z,326.25
2023-04-06T10:46:03.488Z,320.63
2023-04-06T10:47:03.441Z,315.00
2023-04-06T10:48:03.516Z,320.63
2023-04-06T10:49:03.505Z,315.00
2023-04-06T10:50:03.537Z,315.00
2023-04-06T10:51:03.569Z,309.38
2023-04-06T10:52:03.600Z,309.38
2023-04-06T10:53:03.633Z,303.75
2023-04-06T10:54:03.665Z,309.38
2023-04-06T10:55:03.694Z,298.13
2023-04-06T10:56:03.725Z,298.13
2023-04-06T10:57:03.781Z,298.13
2023-04-06T10:58:03.791Z,298.13
2023-04-06T10:59:03.865Z,298.13
2023-04-06T11:00:03.855Z,303.75
2023-04-06T11:01:03.936Z,303.75
2023-04-06T11:02:03.914Z,298.13
2023-04-06T11:03:03.962Z,303.75
2023-04-06T11:04:03.995Z,303.75
2023-04-06T11:05:04.015Z,303.75
2023-04-06T11:06:04.035Z,303.75
2023-04-06T11:07:04.065Z,303.75
2023-04-06T11:08:04.095Z,298.13
2023-04-06T11:09:04.326Z,298.13
2023-04-06T11:10:16.681Z,292.50
2023-04-06T11:11:04.189Z,286.88
2023-04-06T11:12:04.220Z,286.88
2023-04-06T11:13:04.271Z,286.88
2023-04-06T11:14:04.284Z,275.63
2023-04-06T11:15:04.308Z,281.25
2023-04-06T11:16:04.342Z,275.63
2023-04-06T11:17:04.437Z,275.63
2023-04-06T11:18:04.437Z,270.00
2023-04-06T11:19:04.437Z,275.63
2023-04-06T11:21:04.498Z,275.63
2023-04-06T11:22:04.524Z,275.63
2023-04-06T11:23:04.560Z,275.63
2023-04-06T11:24:04.587Z,275.63
2023-04-06T11:25:04.615Z,275.63
2023-04-06T11:26:04.647Z,270.00
2023-04-06T11:27:04.678Z,270.00
2023-04-06T11:28:04.707Z,270.00
2023-04-06T11:29:04.761Z,264.38
2023-04-06T11:30:04.787Z,270.00
2023-04-06T11:31:04.852Z,264.38
2023-04-06T11:32:04.832Z,264.38
2023-04-06T11:33:04.883Z,264.38
2023-04-06T11:34:04.894Z,258.75
2023-04-06T11:35:04.923Z,258.75
2023-04-06T11:36:04.982Z,258.75
2023-04-06T11:37:05.002Z,258.75
2023-04-06T11:38:05.032Z,258.75
2023-04-06T11:39:05.048Z,258.75
2023-04-06T11:40:05.077Z,258.75
2023-04-06T11:41:05.109Z,258.75
2023-04-06T11:42:07.603Z,258.75
2023-04-06T11:43:05.170Z,258.75
2023-04-06T11:44:05.200Z,258.75
2023-04-06T11:45:05.258Z,258.75
2023-04-06T11:46:05.323Z,264.38
2023-04-06T11:47:05.291Z,264.38
2023-04-06T11:48:05.365Z,264.38
2023-04-06T11:49:05.390Z,270.00
2023-04-06T11:50:05.379Z,270.00
2023-04-06T11:51:05.411Z,270.00
2023-04-06T11:52:05.442Z,270.00
2023-04-06T11:53:05.518Z,275.63
2023-04-06T11:54:05.508Z,275.63
2023-04-06T11:55:05.537Z,281.25
2023-04-06T11:56:05.568Z,281.25
2023-04-06T11:57:05.595Z,281.25
2023-04-06T11:58:05.633Z,275.63
2023-04-06T11:59:05.659Z,275.63
2023-04-06T12:00:05.700Z,275.63
2023-04-06T12:01:05.767Z,275.63
2023-04-06T12:02:05.746Z,270.00
2023-04-06T12:03:05.911Z,270.00
2023-04-06T12:04:05.833Z,264.38
2023-04-06T12:05:05.839Z,264.38
2023-04-06T12:06:05.868Z,258.75
2023-04-06T12:07:05.904Z,258.75
2023-04-06T12:08:05.929Z,258.75
2023-04-06T12:09:05.970Z,253.13
2023-04-06T12:10:06.096Z,253.13
2023-04-06T12:11:06.020Z,253.13
2023-04-06T12:12:06.058Z,253.13
2023-04-06T12:13:06.079Z,253.13
2023-04-06T12:14:06.114Z,253.13
2023-04-06T12:15:06.224Z,258.75
2023-04-06T12:16:06.188Z,253.13
2023-04-06T12:17:06.222Z,247.50
2023-04-06T12:18:06.308Z,247.50
2023-04-06T12:19:06.265Z,247.50
2023-04-06T12:20:18.030Z,241.88
2023-04-06T12:21:06.325Z,236.25
2023-04-06T12:22:06.360Z,236.25
2023-04-06T12:23:06.382Z,236.25
2023-04-06T12:24:06.529Z,236.25
2023-04-06T12:25:06.444Z,236.25
2023-04-06T12:26:06.482Z,236.25
2023-04-06T12:27:10.051Z,236.25
2023-04-06T12:28:06.538Z,236.25
2023-04-06T12:29:06.565Z,230.63
2023-04-06T12:30:06.596Z,225.00
2023-04-06T12:31:06.638Z,225.00
2023-04-06T12:32:06.656Z,225.00
2023-04-06T12:33:06.800Z,225.00
2023-04-06T12:34:06.718Z,225.00
2023-04-06T12:35:06.746Z,230.63
2023-04-06T12:36:06.786Z,230.63
2023-04-06T12:37:06.824Z,230.63
2023-04-06T12:38:06.838Z,230.63
2023-04-06T12:39:06.871Z,236.25
2023-04-06T12:40:06.903Z,236.25
2023-04-06T12:41:06.933Z,241.88
2023-04-06T12:42:06.967Z,241.88
2023-04-06T12:43:06.997Z,247.50
2023-04-06T12:44:07.019Z,247.50
2023-04-06T12:45:07.047Z,247.50
2023-04-06T12:46:07.082Z,241.88
2023-04-06T12:47:07.139Z,241.88
2023-04-06T12:48:07.198Z,236.25
2023-04-06T12:49:07.189Z,236.25
2023-04-06T12:50:07.200Z,236.25